Time;durP1;ratioP1;P1;durP2;ratioP2;P2;SDS_P1;SDS_P2;PMS_P1;PMS_P2;Temp;Humidity;BMP_temperature;BMP_pressure;BME280_temperature;BME280_humidity;BME280_pressure;Samples;Min_cycle;Max_cycle;Signal;HPM_P1;HPM_P2
2022/09/13 00:00:52;;;;;;;7.00;4.80;;;;;;;9.45;86.55;98303.41;105343;1280;138615;-75
2022/09/13 00:03:30;;;;;;;9.40;5.20;;;;;;;9.44;86.45;98301.48;105429;1280;25294;-75
2022/09/13 00:05:58;;;;;;;8.20;5.20;;;;;;;9.44;86.62;98297.61;105384;1280;25363;-75
2022/09/13 00:08:25;;;;;;;7.20;4.60;;;;;;;9.42;86.42;98304.88;105388;1280;138208;-75
2022/09/13 00:10:52;;;;;;;7.70;4.90;;;;;;;9.41;86.23;98301.31;105516;1280;24225;-75
2022/09/13 00:13:19;;;;;;;11.10;6.70;;;;;;;9.40;86.31;98298.91;105223;1281;138453;-75
2022/09/13 00:15:48;;;;;;;12.20;8.50;;;;;;;9.39;86.62;98298.17;105402;1281;22559;-75
2022/09/13 00:18:15;;;;;;;;;;;;;;;9.39;87.13;98297.09;105215;1283;22747;-75
2022/09/13 00:20:42;;;;;;;11.20;8.90;;;;;;;9.39;87.45;98295.63;105202;1281;125061;-75
2022/09/13 00:23:10;;;;;;;15.40;10.10;;;;;;;9.40;87.69;98291.40;105325;1281;25244;-75
2022/09/13 00:25:38;;;;;;;16.50;11.30;;;;;;;9.40;88.05;98291.08;105228;1281;138743;-75
2022/09/13 00:28:06;;;;;;;17.80;11.70;;;;;;;9.41;88.30;98292.19;105355;1281;25429;-75
2022/09/13 00:30:33;;;;;;;17.10;11.30;;;;;;;9.43;88.66;98289.99;105297;1281;25373;-74
2022/09/13 00:33:03;;;;;;;16.80;11.60;;;;;;;9.44;88.86;98288.71;105188;1281;138676;-74
2022/09/13 00:35:32;;;;;;;20.60;13.10;;;;;;;9.44;88.71;98285.45;105396;1281;22538;-74
2022/09/13 00:38:00;;;;;;;18.70;13.40;;;;;;;9.44;89.07;98282.46;105184;1281;138665;-74
2022/09/13 00:40:29;;;;;;;20.70;13.30;;;;;;;9.45;88.96;98278.84;105397;1281;22557;-74
2022/09/13 00:42:56;;;;;;;17.10;12.90;;;;;;;9.44;89.12;98277.24;103911;1281;1698966;-74
2022/09/13 00:45:22;;;;;;;15.70;12.10;;;;;;;9.46;89.26;98274.02;105295;1281;25212;-75
2022/09/13 00:47:58;;;;;;;16.90;11.70;;;;;;;9.46;89.15;98275.88;105316;1281;24318;-75
2022/09/13 00:50:31;;;;;;;15.60;11.80;;;;;;;9.47;89.16;98282.67;105249;1281;138523;-75
2022/09/13 00:53:03;;;;;;;20.60;11.70;;;;;;;9.46;88.89;98272.11;105294;1281;24331;-74
2022/09/13 00:55:40;;;;;;;20.30;12.60;;;;;;;9.45;88.89;98274.75;105133;1281;138680;-75
2022/09/13 00:58:16;;;;;;;18.20;12.90;;;;;;;9.44;88.86;98274.02;105328;1281;22744;-74
2022/09/13 01:00:43;;;;;;;22.30;13.10;;;;;;;9.42;88.94;98276.11;105305;1281;25648;-75
2022/09/13 01:03:14;;;;;;;19.10;12.90;;;;;;;9.40;89.02;98273.24;105474;1280;138447;-76
2022/09/13 01:05:45;;;;;;;19.10;13.50;;;;;;;9.37;89.18;98273.84;105699;1280;24358;-75
2022/09/13 01:08:21;;;;;;;20.80;13.30;;;;;;;9.36;89.47;98269.58;105611;1280;138576;-74
2022/09/13 01:10:53;;;;;;;19.20;14.70;;;;;;;9.34;89.46;98270.08;106916;1279;22540;-75
2022/09/13 01:13:21;;;;;;;22.50;14.60;;;;;;;9.31;89.71;98263.69;105354;1281;138672;-74
2022/09/13 01:15:49;;;;;;;21.50;14.60;;;;;;;9.29;89.88;98267.86;105461;1281;24497;-74
2022/09/13 01:18:16;;;;;;;22.40;16.10;;;;;;;9.27;89.86;98264.68;105441;1281;24383;-74
2022/09/13 01:21:11;;;;;;;22.90;15.50;;;;;;;9.25;89.78;98266.98;105308;1280;138510;-74
2022/09/13 01:23:41;;;;;;;21.90;14.70;;;;;;;9.24;90.03;98264.62;105385;1279;30475;-74
2022/09/13 01:26:08;;;;;;;21.70;16.00;;;;;;;9.23;89.96;98267.91;105305;1280;138666;-74
2022/09/13 01:28:44;;;;;;;19.40;14.90;;;;;;;9.21;89.94;98267.83;105551;1281;22548;-74
2022/09/13 01:31:26;;;;;;;18.70;14.30;;;;;;;9.20;89.83;98266.64;105367;1281;138697;-74
2022/09/13 01:34:23;;;;;;;20.10;14.20;;;;;;;9.18;89.89;98266.02;105287;1281;29365;-74
2022/09/13 01:37:33;;;;;;;21.30;13.70;;;;;;;9.17;89.84;98271.01;105323;1281;24285;-75
2022/09/13 01:40:16;;;;;;;19.40;13.50;;;;;;;9.15;89.69;98274.39;104615;1288;22650;-75
2022/09/13 01:42:48;;;;;;;20.30;13.60;;;;;;;9.13;89.79;98279.23;104663;1287;24300;-75
2022/09/13 01:45:22;;;;;;;18.90;14.10;;;;;;;9.11;89.79;98275.21;104593;1287;138362;-76
2022/09/13 01:48:05;;;;;;;18.30;13.70;;;;;;;9.11;89.82;98277.92;104678;1287;24242;-76
2022/09/13 01:50:36;;;;;;;19.80;13.80;;;;;;;9.10;89.81;98273.73;104565;1288;138499;-76
2022/09/13 01:53:25;;;;;;;20.80;14.60;;;;;;;9.09;89.78;98270.99;104631;1288;25260;-77
2022/09/13 01:56:21;;;;;;;27.70;18.70;;;;;;;9.08;90.22;98270.47;104564;1287;138788;-75
2022/09/13 01:59:20;;;;;;;28.20;18.00;;;;;;;9.07;90.78;98268.08;104787;1287;23081;-76
2022/09/13 02:01:54;;;;;;;;;;;;;;;9.07;91.27;98265.19;104566;1288;138801;-74
2022/09/13 02:04:26;;;;;;;28.90;20.30;;;;;;;9.06;91.56;98259.05;104645;1287;24493;-74
2022/09/13 02:07:02;;;;;;;30.40;19.80;;;;;;;9.07;91.79;98260.96;104643;1287;22565;-74
2022/09/13 02:09:34;;;;;;;29.90;19.90;;;;;;;9.08;91.68;98256.05;104645;1286;24007;-74
2022/09/13 02:12:08;;;;;;;30.80;20.90;;;;;;;9.09;91.91;98258.29;104658;1287;23175;-74
2022/09/13 02:14:38;;;;;;;33.10;21.80;;;;;;;9.11;91.89;98258.75;104517;1289;138873;-75
2022/09/13 02:17:29;;;;;;;36.20;22.70;;;;;;;9.11;91.89;98252.39;105074;1284;24275;-74
2022/09/13 02:20:00;;;;;;;34.70;22.20;;;;;;;9.12;92.12;98248.45;105256;1281;138668;-75
2022/09/13 02:22:35;;;;;;;34.60;22.70;;;;;;;9.12;92.03;98245.52;105511;1281;25254;-75
2022/09/13 02:25:14;;;;;;;35.00;22.50;;;;;;;9.12;91.97;98242.76;105420;1281;138973;-75
2022/09/13 02:27:46;;;;;;;31.90;22.80;;;;;;;9.13;92.25;98241.57;105286;1281;25239;-74
2022/09/13 02:30:19;;;;;;;31.00;21.00;;;;;;;9.13;92.30;98238.42;105350;1281;22706;-74
2022/09/13 02:32:58;;;;;;;32.90;21.90;;;;;;;9.14;92.39;98239.91;105252;1281;138728;-74
2022/09/13 02:35:31;;;;;;;31.30;20.80;;;;;;;9.14;92.40;98242.13;105510;1281;30258;-74
2022/09/13 02:38:18;;;;;;;32.10;21.20;;;;;;;9.12;92.23;98245.73;105139;1281;138770;-75
2022/09/13 02:40:54;;;;;;;31.40;21.10;;;;;;;9.09;92.26;98248.77;105320;1281;25155;-75
2022/09/13 02:43:36;;;;;;;30.90;20.90;;;;;;;9.03;92.09;98248.98;105259;1281;138935;-75
2022/09/13 02:46:22;;;;;;;28.40;19.80;;;;;;;8.99;92.27;98246.52;105347;1281;30731;-74
2022/09/13 02:48:48;;;;;;;30.90;20.00;;;;;;;8.98;92.67;98242.50;105368;1281;22553;-75
2022/09/13 02:51:24;;;;;;;28.60;20.00;;;;;;;8.98;92.66;98241.75;105214;1281;138457;-74
2022/09/13 02:54:25;;;;;;;33.10;20.50;;;;;;;8.97;92.53;98244.24;105363;1281;22542;-74
2022/09/13 02:57:08;;;;;;;29.40;20.40;;;;;;;8.96;92.33;98244.05;105269;1281;138876;-75
2022/09/13 02:59:35;;;;;;;29.50;20.20;;;;;;;8.93;92.56;98236.45;105383;1281;25352;-75
2022/09/13 03:02:15;;;;;;;31.70;20.20;;;;;;;8.92;92.75;98232.09;105267;1280;139046;-75
2022/09/13 03:04:42;;;;;;;37.50;22.00;;;;;;;8.92;92.73;98226.71;105608;1281;22553;-75
2022/09/13 03:07:13;;;;;;;31.00;21.30;;;;;;;8.95;93.15;98219.20;105280;1281;138659;-75
2022/09/13 03:09:52;;;;;;;32.30;20.20;;;;;;;8.97;93.25;98220.22;105348;1281;24316;-74
2022/09/13 03:12:31;;;;;;;34.20;22.30;;;;;;;9.00;93.14;98222.30;105377;1281;22556;-74
2022/09/13 03:15:07;;;;;;;;;;;;;;;9.01;93.08;98210.86;105313;1281;138729;-74
2022/09/13 03:17:59;;;;;;;27.40;18.70;;;;;;;9.02;93.21;98209.63;105424;1280;25308;-74
2022/09/13 03:20:43;;;;;;;32.40;20.60;;;;;;;9.00;92.92;98207.70;105307;1281;138916;-76
2022/09/13 03:23:21;;;;;;;32.40;20.90;;;;;;;9.00;93.12;98206.38;105404;1281;24365;-74
2022/09/13 03:26:03;;;;;;;29.60;20.50;;;;;;;9.01;93.11;98203.34;105317;1281;139161;-74
2022/09/13 03:28:48;;;;;;;31.10;19.30;;;;;;;9.02;93.35;98198.55;105428;1281;24423;-74
2022/09/13 03:31:25;;;;;;;29.00;18.90;;;;;;;9.04;93.10;98194.24;105315;1281;139371;-74
2022/09/13 03:34:04;;;;;;;28.50;18.40;;;;;;;9.05;93.08;98191.98;105431;1281;24264;-74
2022/09/13 03:36:45;;;;;;;26.30;18.00;;;;;;;9.07;92.99;98190.77;105406;1280;25407;-74
2022/09/13 03:39:23;;;;;;;27.00;18.00;;;;;;;9.07;92.78;98186.80;105310;1281;138738;-73
2022/09/13 03:41:56;;;;;;;28.60;19.80;;;;;;;9.07;92.80;98188.71;105416;1280;22581;-73
2022/09/13 03:44:26;;;;;;;32.30;19.90;;;;;;;9.08;92.67;98194.23;105266;1280;138859;-73
2022/09/13 03:46:55;;;;;;;;;;;;;;;9.08;92.92;98199.42;105447;1280;24224;-73
2022/09/13 03:49:25;;;;;;;28.10;17.40;;;;;;;9.10;92.82;98195.32;105276;1280;125066;-73
2022/09/13 03:51:57;;;;;;;26.30;18.60;;;;;;;9.10;92.71;98196.70;105396;1280;24312;-73
2022/09/13 03:54:28;;;;;;;27.10;18.30;;;;;;;9.11;92.59;98189.77;105379;1280;25246;-73
2022/09/13 03:57:20;;;;;;;29.20;20.30;;;;;;;9.09;92.40;98191.66;105264;1280;138571;-73
2022/09/13 03:59:49;;;;;;;25.80;18.10;;;;;;;9.09;92.50;98191.30;105359;1280;22569;-73
2022/09/13 04:02:16;;;;;;;;;;;;;;;9.09;92.48;98190.42;105341;1280;138800;-73
2022/09/13 04:04:45;;;;;;;23.30;16.00;;;;;;;9.08;92.38;98190.79;105365;1280;24276;-73
2022/09/13 04:07:17;;;;;;;22.90;16.80;;;;;;;9.08;92.20;98197.20;105299;1280;139319;-74
2022/09/13 04:09:46;;;;;;;25.70;19.10;;;;;;;9.07;92.08;98193.64;105531;1280;22549;-73
2022/09/13 04:12:14;;;;;;;;;;;;;;;9.06;92.31;98193.36;105528;1280;22719;-74
2022/09/13 04:14:42;;;;;;;26.40;19.20;;;;;;;9.07;92.36;98190.16;105434;1280;124642;-73
2022/09/13 04:17:10;;;;;;;27.50;18.60;;;;;;;9.08;92.51;98185.73;105464;1280;22717;-73
2022/09/13 04:19:38;;;;;;;28.30;18.40;;;;;;;9.09;92.43;98187.48;105290;1280;138969;-73
2022/09/13 04:22:05;;;;;;;24.60;18.00;;;;;;;9.09;92.33;98189.45;105366;1280;22558;-73
2022/09/13 04:24:32;;;;;;;23.60;17.00;;;;;;;9.07;92.22;98181.59;105368;1280;22720;-73
2022/09/13 04:27:00;;;;;;;24.20;17.60;;;;;;;9.07;92.40;98186.91;105277;1280;138741;-73
2022/09/13 04:29:27;;;;;;;25.00;16.80;;;;;;;9.07;92.34;98181.86;105369;1281;25245;-73
2022/09/13 04:31:54;;;;;;;26.40;17.60;;;;;;;9.08;92.37;98176.40;105274;1280;137625;-73
2022/09/13 04:34:21;;;;;;;27.50;18.30;;;;;;;9.10;92.58;98178.61;105375;1280;24272;-73
2022/09/13 04:36:51;;;;;;;26.70;19.10;;;;;;;9.13;92.81;98177.58;105374;1280;25269;-73
2022/09/13 04:39:19;;;;;;;30.60;19.50;;;;;;;9.18;92.75;98179.84;105319;1280;138368;-73
2022/09/13 04:41:47;;;;;;;29.40;20.10;;;;;;;9.20;92.49;98176.85;105446;1280;22568;-73
2022/09/13 04:44:16;;;;;;;27.40;19.20;;;;;;;9.21;92.21;98178.88;105285;1280;139297;-73
2022/09/13 04:46:47;;;;;;;30.20;21.20;;;;;;;9.22;92.37;98180.19;105429;1280;22547;-73
2022/09/13 04:49:18;;;;;;;32.30;19.80;;;;;;;9.22;92.51;98183.45;105284;1280;139075;-73
2022/09/13 04:51:46;;;;;;;33.30;20.80;;;;;;;9.21;92.08;98181.59;105397;1280;22620;-73
2022/09/13 04:54:13;;;;;;;29.30;19.20;;;;;;;9.20;92.27;98182.77;105387;1280;24428;-73
2022/09/13 04:56:40;;;;;;;28.20;19.40;;;;;;;9.18;92.13;98178.42;105352;1280;138531;-73
2022/09/13 04:59:09;;;;;;;31.50;19.50;;;;;;;9.14;92.10;98180.36;105363;1280;22553;-73
2022/09/13 05:01:36;;;;;;;25.80;19.00;;;;;;;9.11;92.04;98180.05;105353;1280;138767;-73
2022/09/13 05:04:05;;;;;;;27.20;19.70;;;;;;;9.10;92.27;98178.82;105604;1280;22550;-73
2022/09/13 05:06:33;;;;;;;32.60;20.80;;;;;;;9.12;92.69;98177.23;105396;1280;25328;-73
2022/09/13 05:09:00;;;;;;;32.10;22.10;;;;;;;9.16;92.96;98177.03;105285;1280;138822;-73
2022/09/13 05:11:28;;;;;;;34.90;20.40;;;;;;;9.21;92.85;98176.09;105390;1280;22579;-73
2022/09/13 05:13:57;;;;;;;32.30;21.70;;;;;;;9.26;93.11;98176.72;105234;1281;139019;-73
2022/09/13 05:16:27;;;;;;;32.50;20.90;;;;;;;9.33;93.16;98175.77;105352;1281;24251;-73
2022/09/13 05:18:54;;;;;;;35.80;22.10;;;;;;;9.39;92.96;98173.96;105549;1281;29381;-73
2022/09/13 05:21:22;;;;;;;31.20;21.30;;;;;;;9.42;92.62;98173.98;105333;1280;138466;-73
2022/09/13 05:23:52;;;;;;;36.30;22.50;;;;;;;9.48;92.90;98171.63;105556;1280;24544;-73
2022/09/13 05:26:21;;;;;;;37.40;22.40;;;;;;;9.54;92.73;98176.25;105449;1280;138562;-73
2022/09/13 05:28:49;;;;;;;32.80;20.00;;;;;;;9.59;92.66;98178.39;105553;1280;23858;-73
2022/09/13 05:31:23;;;;;;;30.10;19.70;;;;;;;9.59;92.18;98179.98;105856;1280;139522;-73
2022/09/13 05:33:56;;;;;;;33.50;21.00;;;;;;;9.58;92.10;98175.95;106471;1280;22693;-73
2022/09/13 05:36:23;;;;;;;29.90;18.90;;;;;;;9.59;92.10;98176.61;106016;1280;23751;-73
2022/09/13 05:38:52;;;;;;;31.40;19.50;;;;;;;9.63;92.21;98180.48;105526;1280;138685;-73
2022/09/13 05:41:21;;;;;;;30.30;19.60;;;;;;;9.68;92.70;98184.16;105840;1280;24559;-73
2022/09/13 05:43:50;;;;;;;31.60;20.40;;;;;;;9.74;92.63;98183.60;105978;1280;139317;-73
2022/09/13 05:46:19;;;;;;;31.00;20.40;;;;;;;9.80;92.55;98184.77;106113;1280;23337;-73
2022/09/13 05:48:47;;;;;;;30.10;18.50;;;;;;;9.82;92.11;98189.01;106318;1280;22707;-73
2022/09/13 05:51:18;;;;;;;33.70;19.80;;;;;;;9.84;91.85;98193.08;105721;1280;138726;-73
2022/09/13 05:53:46;;;;;;;35.70;21.90;;;;;;;9.85;91.93;98194.08;105937;1280;24243;-73
2022/09/13 05:56:17;;;;;;;33.00;21.80;;;;;;;9.92;92.34;98197.05;105970;1280;138571;-73
2022/09/13 05:58:47;;;;;;;36.80;22.40;;;;;;;9.97;92.48;98190.52;105636;1281;24427;-74
2022/09/13 06:01:20;;;;;;;36.60;23.30;;;;;;;10.04;92.50;98195.08;105835;1280;138879;-74
2022/09/13 06:03:59;;;;;;;36.50;22.70;;;;;;;10.10;92.34;98190.66;105705;1280;23972;-74
2022/09/13 06:06:28;;;;;;;34.90;23.10;;;;;;;10.18;92.40;98191.10;105717;1280;25207;-73
2022/09/13 06:08:56;;;;;;;36.50;23.20;;;;;;;10.24;92.46;98190.70;105441;1280;138738;-74
2022/09/13 06:11:25;;;;;;;40.30;24.00;;;;;;;10.31;92.52;98189.45;105432;1280;22587;-73
2022/09/13 06:13:52;;;;;;;37.70;23.70;;;;;;;10.36;92.28;98188.03;105752;1280;138829;-73
2022/09/13 06:16:20;;;;;;;32.00;20.30;;;;;;;10.41;92.19;98191.74;105405;1281;24415;-74
2022/09/13 06:18:48;;;;;;;33.90;21.20;;;;;;;10.46;92.07;98187.72;105502;1280;24384;-73
2022/09/13 06:21:18;;;;;;;31.70;21.20;;;;;;;10.51;92.10;98193.30;105382;1280;139439;-73
2022/09/13 06:23:50;;;;;;;39.50;23.00;;;;;;;10.54;91.83;98194.48;105590;1280;22599;-73
2022/09/13 06:26:20;;;;;;;38.00;21.70;;;;;;;10.57;91.90;98191.85;105545;1280;138900;-73
2022/09/13 06:28:49;;;;;;;34.30;22.10;;;;;;;10.61;92.13;98192.84;105448;1280;22557;-69
2022/09/13 06:31:18;;;;;;;38.10;22.60;;;;;;;10.71;92.88;98194.87;105705;1280;140137;-74
2022/09/13 06:33:45;;;;;;;39.50;21.70;;;;;;;10.82;92.45;98195.02;105634;1280;22559;-73
2022/09/13 06:36:19;;;;;;;36.50;21.80;;;;;;;10.90;92.43;98200.66;105478;1280;25513;-74
2022/09/13 06:38:49;;;;;;;29.30;19.80;;;;;;;10.97;92.25;98199.27;105813;1280;138796;-76
2022/09/13 06:41:22;;;;;;;31.40;19.10;;;;;;;11.07;92.93;98201.31;106467;1280;22578;-73
2022/09/13 06:43:57;;;;;;;30.30;19.30;;;;;;;11.20;92.62;98201.90;107466;1280;138867;-75
2022/09/13 06:46:26;;;;;;;27.50;18.70;;;;;;;11.31;92.52;98196.79;106812;1280;22714;-74
2022/09/13 06:48:54;;;;;;;25.50;18.00;;;;;;;11.42;92.24;98197.11;105415;1280;25245;-74
2022/09/13 06:51:23;;;;;;;25.10;17.90;;;;;;;11.52;92.25;98189.27;105389;1280;138479;-74
2022/09/13 06:53:51;;;;;;;22.20;16.90;;;;;;;11.64;92.12;98189.65;105613;1280;22562;-73
2022/09/13 06:56:20;;;;;;;21.80;15.40;;;;;;;11.76;92.29;98192.75;105489;1280;139022;-74
2022/09/13 06:58:50;;;;;;;22.40;15.20;;;;;;;11.87;92.17;98194.11;106094;1280;25431;-74
2022/09/13 07:01:18;;;;;;;20.50;14.00;;;;;;;11.99;91.91;98198.42;105600;1280;138835;-73
2022/09/13 07:03:53;;;;;;;19.40;14.60;;;;;;;12.10;91.61;98201.96;106085;1281;25209;-74
2022/09/13 07:06:27;;;;;;;18.30;14.80;;;;;;;12.23;91.63;98205.44;105561;1281;24306;-73
2022/09/13 07:08:55;;;;;;;21.90;13.80;;;;;;;12.35;91.36;98205.41;106262;1281;138704;-74
2022/09/13 07:11:25;;;;;;;19.30;12.60;;;;;;;12.48;90.76;98203.91;105655;1280;22573;-74
2022/09/13 07:13:57;;;;;;;16.70;12.90;;;;;;;12.59;90.32;98197.86;105586;1280;139055;-73
2022/09/13 07:16:27;;;;;;;17.00;12.10;;;;;;;12.70;90.15;98202.95;106180;1280;22664;-73
2022/09/13 07:18:56;;;;;;;17.80;11.80;;;;;;;12.81;89.47;98199.50;105476;1280;22631;-73
2022/09/13 07:21:23;;;;;;;;;;;;;;;12.92;89.25;98200.15;106316;1280;22543;-73
2022/09/13 07:23:51;;;;;;;16.00;11.60;;;;;;;13.03;88.53;98198.61;105808;1280;25315;-72
2022/09/13 07:26:19;;;;;;;16.00;11.60;;;;;;;13.11;87.97;98195.36;106168;1280;139381;-72
2022/09/13 07:28:49;;;;;;;21.80;11.70;;;;;;;13.20;87.41;98192.66;106621;1280;22544;-72
2022/09/13 07:31:19;;;;;;;16.60;11.00;;;;;;;13.32;87.29;98179.47;106511;1280;138995;-72
2022/09/13 07:33:51;;;;;;;16.30;11.20;;;;;;;13.45;87.09;98183.52;106059;1280;25306;-73
2022/09/13 07:36:18;;;;;;;12.30;10.60;;;;;;;13.57;86.66;98185.07;105667;1280;22701;-72
2022/09/13 07:38:45;;;;;;;14.50;10.80;;;;;;;13.67;86.41;98182.45;105306;1280;138805;-74
2022/09/13 07:41:15;;;;;;;17.70;12.10;;;;;;;13.76;85.80;98178.25;105612;1280;24315;-73
2022/09/13 07:43:42;;;;;;;15.10;12.00;;;;;;;13.86;85.64;98181.80;106585;1280;139657;-73
2022/09/13 07:46:11;;;;;;;16.90;11.60;;;;;;;13.97;85.32;98183.17;105787;1279;22662;-72
2022/09/13 07:48:40;;;;;;;;;;;;;;;14.05;84.76;98186.45;105830;1280;25476;-73
2022/09/13 07:51:10;;;;;;;16.20;11.70;;;;;;;14.12;84.71;98187.38;105708;1280;124917;-73
2022/09/13 07:53:39;;;;;;;21.40;11.10;;;;;;;14.18;84.37;98185.02;105418;1280;25672;-74
2022/09/13 07:56:11;;;;;;;21.70;12.80;;;;;;;14.28;83.73;98187.38;105579;1280;140707;-73
2022/09/13 07:58:40;;;;;;;18.30;11.80;;;;;;;14.37;83.27;98181.77;106157;1280;23391;-73
2022/09/13 08:01:19;;;;;;;16.80;12.50;;;;;;;14.47;83.23;98181.59;106160;1280;138928;-74
2022/09/13 08:03:54;;;;;;;15.50;11.30;;;;;;;14.58;82.91;98178.45;105687;1280;24322;-73
2022/09/13 08:06:23;;;;;;;15.60;11.20;;;;;;;14.67;82.35;98177.08;105353;1280;22559;-73
2022/09/13 08:08:50;;;;;;;14.00;10.40;;;;;;;14.75;81.86;98173.92;105937;1280;138701;-74
2022/09/13 08:11:30;;;;;;;19.30;11.50;;;;;;;14.84;81.69;98171.05;105704;1280;22553;-73
2022/09/13 08:13:57;;;;;;;12.50;10.00;;;;;;;14.96;81.25;98171.38;105405;1280;138813;-74
2022/09/13 08:16:26;;;;;;;15.30;9.70;;;;;;;15.04;80.78;98169.59;106034;1280;22564;-74
2022/09/13 08:18:55;;;;;;;17.00;10.30;;;;;;;15.11;80.82;98167.48;105676;1280;24301;-74
2022/09/13 08:21:24;;;;;;;11.20;9.50;;;;;;;15.17;80.34;98160.74;105457;1280;22570;-74
2022/09/13 08:23:55;;;;;;;13.20;9.30;;;;;;;15.27;80.17;98155.48;105999;1280;24274;-74
2022/09/13 08:26:22;;;;;;;12.90;8.70;;;;;;;15.39;80.20;98154.64;105914;1280;139002;-74
2022/09/13 08:28:56;;;;;;;14.50;9.10;;;;;;;15.51;79.89;98151.77;106235;1280;22805;-75
2022/09/13 08:31:23;;;;;;;11.20;7.90;;;;;;;15.65;78.81;98148.21;105574;1280;139376;-74
2022/09/13 08:33:50;;;;;;;10.80;8.00;;;;;;;15.75;78.29;98149.14;106515;1280;22593;-74
2022/09/13 08:36:17;;;;;;;11.10;7.80;;;;;;;15.88;78.02;98146.48;105735;1281;22568;-74
2022/09/13 08:38:48;;;;;;;13.60;8.20;;;;;;;16.00;77.98;98141.81;106227;1280;138862;-74
2022/09/13 08:41:38;;;;;;;8.70;6.40;;;;;;;16.02;76.90;98144.27;105862;1280;22538;-74
2022/09/13 08:44:48;;;;;;;8.80;7.00;;;;;;;16.08;76.62;98139.54;105852;1280;138553;-74
2022/09/13 08:47:37;;;;;;;11.20;7.40;;;;;;;16.21;75.54;98131.61;106001;1280;25249;-74
2022/09/13 08:50:08;;;;;;;;;;;;;;;16.36;76.26;98132.22;106120;1280;138571;-74
2022/09/13 08:52:49;;;;;;;8.70;5.50;;;;;;;16.52;75.85;98135.48;105794;1280;25375;-74
2022/09/13 08:55:19;;;;;;;8.20;5.90;;;;;;;16.73;75.89;98132.41;105569;1280;138991;-74
2022/09/13 08:58:05;;;;;;;10.20;5.40;;;;;;;16.97;75.35;98134.20;105721;1280;25242;-73
2022/09/13 09:00:43;;;;;;;7.00;5.10;;;;;;;17.14;74.13;98136.67;105809;1280;24214;-74
2022/09/13 09:03:13;;;;;;;7.00;4.50;;;;;;;17.28;73.05;98126.28;105241;1280;138801;-74
2022/09/13 09:05:51;;;;;;;7.70;4.00;;;;;;;17.44;71.92;98127.66;105721;1280;22628;-74
2022/09/13 09:08:42;;;;;;;5.10;3.70;;;;;;;17.63;71.03;98130.77;105369;1280;138394;-74
2022/09/13 09:11:24;;;;;;;7.40;3.80;;;;;;;17.82;69.01;98127.90;106021;1280;24382;-74
2022/09/13 09:14:19;;;;;;;8.00;2.80;;;;;;;17.94;68.02;98125.35;106091;1280;138082;-74
2022/09/13 09:17:21;;;;;;;4.40;2.30;;;;;;;17.98;65.30;98124.23;105469;1280;25327;-74
2022/09/13 09:20:20;;;;;;;6.50;2.40;;;;;;;18.07;63.51;98115.04;105301;1280;137875;-74
2022/09/13 09:22:55;;;;;;;2.90;1.80;;;;;;;18.25;63.59;98111.40;106152;1280;22573;-74
2022/09/13 09:25:34;;;;;;;4.60;2.70;;;;;;;18.49;63.10;98108.16;105726;1280;137879;-73
2022/09/13 09:28:08;;;;;;;;;;;;;;;18.64;62.43;98102.23;106195;1280;23124;-75
2022/09/13 09:31:01;;;;;;;4.80;2.20;;;;;;;18.69;62.39;98101.67;105656;1280;26505;-74
2022/09/13 09:33:55;;;;;;;4.10;2.40;;;;;;;18.70;61.95;98099.07;106441;1279;22557;-74
2022/09/13 09:36:36;;;;;;;7.40;2.50;;;;;;;18.70;61.64;98102.05;106280;1280;22663;-74
2022/09/13 09:39:05;;;;;;;3.20;2.60;;;;;;;18.69;60.61;98096.77;106162;1280;138009;-74
2022/09/13 09:41:34;;;;;;;3.50;2.40;;;;;;;18.71;61.26;98093.63;105540;1280;22564;-74
2022/09/13 09:44:09;;;;;;;3.20;2.10;;;;;;;18.78;61.42;98098.58;105646;1279;137794;-74
2022/09/13 09:46:39;;;;;;;4.70;2.80;;;;;;;18.89;61.20;98096.27;106150;1280;25535;-74
2022/09/13 09:52:10;;;;;;;4.80;2.80;;;;;;;18.95;60.98;98094.98;105947;1280;25293;-74
2022/09/13 09:54:38;;;;;;;3.80;2.20;;;;;;;18.96;61.01;98093.42;106185;1280;22541;-74
2022/09/13 09:57:08;;;;;;;4.80;2.60;;;;;;;19.03;60.75;98090.14;105892;1280;138172;-74
2022/09/13 09:59:36;;;;;;;4.00;2.00;;;;;;;19.14;60.71;98085.03;105664;1280;24317;-74
2022/09/13 10:02:21;;;;;;;3.80;2.30;;;;;;;19.20;59.87;98090.58;105709;1280;137823;-74
2022/09/13 10:04:57;;;;;;;2.90;2.00;;;;;;;19.27;58.96;98082.23;105474;1280;23191;-74
2022/09/13 10:07:33;;;;;;;2.10;1.80;;;;;;;19.44;58.59;98076.94;105310;1280;137881;-74
2022/09/13 10:10:20;;;;;;;2.50;1.60;;;;;;;19.57;57.73;98073.80;105465;1280;22554;-74
2022/09/13 10:12:55;;;;;;;2.40;1.80;;;;;;;19.71;56.76;98070.92;105409;1280;24352;-74
2022/09/13 10:15:26;;;;;;;2.60;1.80;;;;;;;19.80;56.27;98062.33;105575;1280;137716;-73
2022/09/13 10:18:00;;;;;;;2.40;2.00;;;;;;;19.91;56.51;98067.77;105370;1280;22567;-74
2022/09/13 10:20:27;;;;;;;3.30;2.10;;;;;;;19.98;55.58;98062.29;105357;1280;138061;-73
2022/09/13 10:23:13;;;;;;;4.00;2.00;;;;;;;19.97;55.39;98059.91;105811;1280;25233;-73
2022/09/13 10:25:44;;;;;;;1.90;1.50;;;;;;;19.99;55.59;98056.52;105630;1280;138656;-72
2022/09/13 10:28:15;;;;;;;3.00;2.40;;;;;;;20.07;55.79;98054.30;106094;1280;25415;-73
2022/09/13 10:30:52;;;;;;;2.60;1.70;;;;;;;20.18;55.27;98056.86;105730;1280;24317;-73
2022/09/13 10:33:25;;;;;;;4.30;1.50;;;;;;;20.22;54.88;98057.02;105614;1280;137519;-73
2022/09/13 10:35:56;;;;;;;3.40;1.60;;;;;;;20.20;54.38;98055.47;105371;1280;22590;-73
2022/09/13 10:38:29;;;;;;;2.40;1.90;;;;;;;20.18;54.06;98049.28;105468;1280;138134;-73
2022/09/13 10:40:58;;;;;;;2.10;1.70;;;;;;;20.11;53.55;98042.29;105971;1280;22550;-73
2022/09/13 10:43:28;;;;;;;5.30;1.90;;;;;;;20.02;53.92;98042.67;105639;1280;137791;-73
2022/09/13 10:45:57;;;;;;;3.60;2.20;;;;;;;19.99;54.22;98042.83;105579;1280;22858;-73
2022/09/13 10:48:24;;;;;;;8.20;2.20;;;;;;;19.99;54.49;98045.10;105816;1280;22589;-73
2022/09/13 10:51:25;;;;;;;7.60;2.20;;;;;;;20.06;55.09;98043.52;106026;1280;138258;-73
2022/09/13 10:54:10;;;;;;;3.60;2.10;;;;;;;20.18;54.20;98041.09;106237;1280;22596;-73
2022/09/13 10:56:37;;;;;;;2.40;2.00;;;;;;;20.21;52.81;98035.15;106375;1280;137690;-73
2022/09/13 10:59:24;;;;;;;3.10;2.00;;;;;;;20.20;53.57;98033.45;105872;1279;22544;-73
2022/09/13 11:02:27;;;;;;;3.00;2.00;;;;;;;20.24;53.46;98033.00;105600;1280;138353;-73
2022/09/13 11:05:19;;;;;;;3.10;2.30;;;;;;;20.27;52.81;98035.63;106223;1280;22557;-73
2022/09/13 11:07:55;;;;;;;2.50;2.20;;;;;;;20.27;53.07;98038.17;105888;1280;138576;-73
2022/09/13 11:11:00;;;;;;;3.20;2.10;;;;;;;20.27;53.05;98037.29;105408;1280;22540;-73
2022/09/13 11:13:46;;;;;;;4.60;3.10;;;;;;;20.24;52.80;98037.11;105951;1280;138885;-72
2022/09/13 11:16:18;;;;;;;2.10;1.90;;;;;;;20.20;52.80;98034.40;105490;1280;22699;-72
2022/09/13 11:19:12;;;;;;;5.00;2.30;;;;;;;20.20;52.95;98029.36;105506;1280;23438;-73
2022/09/13 11:22:10;;;;;;;2.00;1.90;;;;;;;20.22;53.78;98022.66;105381;1280;25377;-73
2022/09/13 11:25:14;;;;;;;2.50;2.20;;;;;;;20.25;53.34;98019.22;105357;1280;23975;-73
2022/09/13 11:27:50;;;;;;;2.30;2.10;;;;;;;20.27;54.17;98016.02;105654;1280;22587;-73
2022/09/13 11:30:18;;;;;;;4.60;2.20;;;;;;;20.37;54.34;98015.36;105876;1280;22543;-73
2022/09/13 11:33:16;;;;;;;1.80;1.70;;;;;;;20.44;53.86;98011.48;105434;1280;137920;-73
2022/09/13 11:36:05;;;;;;;5.60;2.40;;;;;;;20.54;53.50;98009.10;105792;1280;23088;-72
2022/09/13 11:38:40;;;;;;;5.10;2.20;;;;;;;20.63;53.23;98004.34;105448;1280;137702;-73
2022/09/13 11:41:13;;;;;;;2.60;2.00;;;;;;;20.69;53.19;97998.61;105430;1280;22622;-73
2022/09/13 11:43:51;;;;;;;2.90;1.90;;;;;;;20.82;53.01;97999.21;105292;1280;137978;-73
2022/09/13 11:46:55;;;;;;;4.20;1.70;;;;;;;20.92;52.77;97997.63;105344;1280;23974;-72
2022/09/13 11:49:50;;;;;;;4.00;1.60;;;;;;;21.07;52.45;97991.30;105879;1280;138179;-73
2022/09/13 11:52:56;;;;;;;3.50;1.50;;;;;;;21.24;52.07;97986.16;105688;1280;23384;-73